createdAt,value
2018-09-04T00:02:08.377Z,100.00
2018-09-04T00:04:37.913Z,100.00
2018-09-04T00:07:06.873Z,100.00
2018-09-04T00:09:35.735Z,100.00
2018-09-04T00:12:04.572Z,100.00
2018-09-04T00:14:33.818Z,100.00
2018-09-04T00:17:03.566Z,100.00
2018-09-04T00:19:33.426Z,100.00
2018-09-04T00:22:03.810Z,100.00
2018-09-04T00:24:32.725Z,100.00
2018-09-04T00:27:01.619Z,100.00
2018-09-04T00:29:30.400Z,100.00
2018-09-04T00:32:02.426Z,100.00
2018-09-04T00:34:31.355Z,100.00
2018-09-04T00:37:00.245Z,100.00
2018-09-04T00:39:29.663Z,100.00
2018-09-04T00:41:58.461Z,100.00
2018-09-04T00:44:27.369Z,100.00
2018-09-04T00:46:56.531Z,100.00
2018-09-04T00:49:25.413Z,100.00
2018-09-04T00:51:54.464Z,100.00
2018-09-04T00:54:23.314Z,100.00
2018-09-04T00:56:52.472Z,100.00
2018-09-04T00:59:21.334Z,100.00
2018-09-04T01:01:50.192Z,100.00
2018-09-04T01:04:19.068Z,100.00
2018-09-04T01:06:47.951Z,100.00
2018-09-04T01:09:19.330Z,100.00
2018-09-04T01:11:48.200Z,100.00
2018-09-04T01:14:17.494Z,100.00
2018-09-04T01:16:47.243Z,100.00
2018-09-04T01:19:16.052Z,100.00
2018-09-04T01:21:45.341Z,100.00
2018-09-04T01:24:14.178Z,100.00
2018-09-04T01:26:43.616Z,100.00
2018-09-04T01:29:12.613Z,100.00
2018-09-04T01:31:41.958Z,100.00
2018-09-04T01:34:10.861Z,100.00
2018-09-04T01:36:39.735Z,100.00
2018-09-04T01:39:08.628Z,100.00
2018-09-04T01:41:37.721Z,100.00
2018-09-04T01:44:06.611Z,100.00
2018-09-04T01:46:35.480Z,100.00
2018-09-04T01:49:04.385Z,100.00
2018-09-04T01:51:33.254Z,100.00
2018-09-04T01:54:02.393Z,100.00
2018-09-04T01:56:33.117Z,100.00
2018-09-04T01:59:02.024Z,100.00
2018-09-04T02:01:30.868Z,100.00
2018-09-04T02:03:59.731Z,100.00
2018-09-04T02:06:28.561Z,100.00
2018-09-04T02:08:57.424Z,100.00
2018-09-04T02:11:26.295Z,100.00
2018-09-04T02:13:55.500Z,100.00
2018-09-04T02:16:24.480Z,100.00
2018-09-04T02:18:53.569Z,100.00
2018-09-04T02:21:22.388Z,100.00
2018-09-04T02:23:51.197Z,100.00
2018-09-04T02:26:20.043Z,100.00
2018-09-04T02:28:49.257Z,100.00
2018-09-04T02:31:18.092Z,100.00
2018-09-04T02:33:46.926Z,100.00
2018-09-04T02:36:16.097Z,100.00
2018-09-04T02:38:44.967Z,100.00
2018-09-04T02:41:14.405Z,100.00
2018-09-04T02:43:43.280Z,100.00
2018-09-04T02:46:12.157Z,100.00
2018-09-04T02:48:41.809Z,100.00
2018-09-04T02:51:10.688Z,100.00
2018-09-04T02:53:39.591Z,100.00
2018-09-04T02:56:08.528Z,100.00
2018-09-04T02:58:37.822Z,100.00
2018-09-04T03:01:09.555Z,100.00
2018-09-04T03:03:38.434Z,100.00
2018-09-04T03:06:07.318Z,100.00
2018-09-04T03:08:36.182Z,100.00
2018-09-04T03:11:05.076Z,100.00
2018-09-04T03:13:34.413Z,100.00
2018-09-04T03:16:03.226Z,100.00
2018-09-04T03:18:32.076Z,100.00
2018-09-04T03:21:01.013Z,100.00
2018-09-04T03:23:29.841Z,100.00
2018-09-04T03:25:59.122Z,100.00
2018-09-04T03:28:28.008Z,100.00
2018-09-04T03:30:57.253Z,100.00
2018-09-04T03:33:26.140Z,100.00
2018-09-04T03:35:55.040Z,100.00
2018-09-04T03:38:23.905Z,100.00
2018-09-04T03:40:53.169Z,100.00
2018-09-04T03:43:22.120Z,100.00
2018-09-04T03:45:50.920Z,100.00
2018-09-04T03:48:19.888Z,100.00
2018-09-04T03:50:49.739Z,100.00
2018-09-04T03:53:19.370Z,100.00
2018-09-04T03:55:48.202Z,100.00
2018-09-04T03:58:17.060Z,100.00
2018-09-04T04:00:45.884Z,100.00
2018-09-04T04:03:14.767Z,100.00
2018-09-04T04:05:44.316Z,100.00
2018-09-04T04:08:13.138Z,100.00
2018-09-04T04:10:42.006Z,100.00
2018-09-04T04:13:10.893Z,100.00
2018-09-04T04:15:40.181Z,100.00
2018-09-04T04:18:10.737Z,100.00
2018-09-04T04:20:39.704Z,100.00
2018-09-04T04:23:09.589Z,100.00
2018-09-04T04:25:39.135Z,100.00
2018-09-04T04:28:08.200Z,100.00
2018-09-04T04:30:37.085Z,100.00
2018-09-04T04:33:06.566Z,100.00
2018-09-04T04:35:37.113Z,100.00
2018-09-04T04:38:06.002Z,100.00
2018-09-04T04:40:34.886Z,100.00
2018-09-04T04:43:04.242Z,100.00
2018-09-04T04:45:33.104Z,100.00
2018-09-04T04:48:01.933Z,100.00
2018-09-04T04:50:30.768Z,100.00
2018-09-04T04:52:59.549Z,100.00
2018-09-04T04:55:28.397Z,100.00
2018-09-04T04:57:57.573Z,100.00
2018-09-04T05:00:27.430Z,100.00
2018-09-04T05:02:56.404Z,100.00
2018-09-04T05:05:25.306Z,100.00
2018-09-04T05:07:54.187Z,100.00
2018-09-04T05:10:23.003Z,100.00
2018-09-04T05:12:53.869Z,100.00
2018-09-04T05:15:23.229Z,100.00
2018-09-04T05:17:52.020Z,100.00
2018-09-04T05:20:23.148Z,100.00
2018-09-04T05:22:52.379Z,100.00
2018-09-04T05:25:21.308Z,100.00
2018-09-04T05:27:50.167Z,100.00
2018-09-04T05:30:19.295Z,100.00
2018-09-04T05:32:54.292Z,100.00
2018-09-04T05:35:23.195Z,100.00
2018-09-04T05:37:52.097Z,100.00
2018-09-04T05:40:23.074Z,100.00
2018-09-04T05:42:54.476Z,100.00
2018-09-04T05:45:24.952Z,100.00
2018-09-04T05:48:00.351Z,100.00
2018-09-04T05:50:29.263Z,100.00
2018-09-04T05:52:58.481Z,100.00
2018-09-04T05:55:27.673Z,100.00
2018-09-04T05:57:57.591Z,100.00
2018-09-04T06:00:29.915Z,100.00
2018-09-04T06:02:58.782Z,100.00
2018-09-04T06:05:28.072Z,100.00
2018-09-04T06:07:57.516Z,100.00
2018-09-04T06:10:26.336Z,100.00
2018-09-04T06:15:32.285Z,100.00
2018-09-04T06:18:01.301Z,100.00
2018-09-04T06:20:33.672Z,100.00
2018-09-04T06:23:03.405Z,100.00
2018-09-04T06:25:33.416Z,100.00
2018-09-04T06:28:02.373Z,100.00
2018-09-04T06:33:30.584Z,100.00
2018-09-04T06:36:10.640Z,100.00
2018-09-04T06:38:39.432Z,100.00
2018-09-04T06:41:08.244Z,100.00
2018-09-04T06:43:37.105Z,100.00
2018-09-04T06:46:06.345Z,100.00
2018-09-04T06:48:37.266Z,100.00
2018-09-04T06:51:06.129Z,100.00
2018-09-04T06:53:35.019Z,100.00
2018-09-04T06:56:03.844Z,100.00
2018-09-04T06:58:32.775Z,100.00
2018-09-04T07:01:03.837Z,100.00
2018-09-04T07:03:32.704Z,100.00
2018-09-04T07:06:02.406Z,100.00
2018-09-04T07:08:31.613Z,100.00
2018-09-04T07:11:00.489Z,100.00
2018-09-04T07:13:31.091Z,100.00
2018-09-04T07:15:59.896Z,100.00
2018-09-04T07:18:29.785Z,100.00
2018-09-04T07:20:59.258Z,100.00
2018-09-04T07:23:28.493Z,100.00
2018-09-04T07:25:57.299Z,100.00
2018-09-04T07:28:26.607Z,100.00
2018-09-04T07:30:55.566Z,100.00
2018-09-04T07:33:25.428Z,100.00
2018-09-04T07:35:55.287Z,100.00
2018-09-04T07:38:25.412Z,100.00
2018-09-04T07:40:55.905Z,100.00
2018-09-04T07:43:27.352Z,100.00
2018-09-04T07:45:56.510Z,99.74
2018-09-04T07:48:25.688Z,98.85
2018-09-04T07:50:56.441Z,99.11
2018-09-04T07:53:25.877Z,97.68
2018-09-04T07:55:54.704Z,98.59
2018-09-04T07:58:24.454Z,97.32
2018-09-04T08:00:53.336Z,96.15
2018-09-04T08:03:23.333Z,95.55
2018-09-04T08:05:53.198Z,91.56
2018-09-04T08:08:22.668Z,95.31
2018-09-04T08:10:52.435Z,93.69
2018-09-04T08:13:21.276Z,94.94
2018-09-04T08:15:50.686Z,91.02
2018-09-04T08:18:20.529Z,93.09
2018-09-04T08:20:49.493Z,93.21
2018-09-04T08:23:18.328Z,90.88
2018-09-04T08:25:47.175Z,92.35
2018-09-04T08:28:18.533Z,92.51
2018-09-04T08:30:47.461Z,94.18
2018-09-04T08:33:17.135Z,90.66
2018-09-04T08:35:46.552Z,91.87
2018-09-04T08:38:15.412Z,91.95
2018-09-04T08:40:44.511Z,91.88
2018-09-04T08:43:14.090Z,90.18
2018-09-04T08:45:46.235Z,91.42
2018-09-04T08:48:18.190Z,90.94
2018-09-04T08:50:50.611Z,91.73
2018-09-04T08:53:22.454Z,92.40
2018-09-04T08:55:52.494Z,88.54
2018-09-04T08:58:21.328Z,88.91
2018-09-04T09:00:53.722Z,89.54
2018-09-04T09:03:24.943Z,86.97
2018-09-04T09:05:55.781Z,87.02
2018-09-04T09:08:24.710Z,87.85
2018-09-04T09:10:58.562Z,86.83
2018-09-04T09:13:28.497Z,87.81
2018-09-04T09:15:57.847Z,87.98
2018-09-04T09:18:27.522Z,83.64
2018-09-04T09:20:56.341Z,85.94
2018-09-04T09:23:27.998Z,84.01
2018-09-04T09:25:58.980Z,84.93
2018-09-04T09:28:27.819Z,86.18
2018-09-04T09:30:57.181Z,86.69
2018-09-04T09:33:29.491Z,86.78
2018-09-04T09:35:58.459Z,84.70
2018-09-04T09:38:29.820Z,85.68
2018-09-04T09:40:59.357Z,85.05
2018-09-04T09:43:30.061Z,83.19
2018-09-04T09:45:59.216Z,82.96
2018-09-04T09:48:34.362Z,82.10
2018-09-04T09:51:04.446Z,79.62
2018-09-04T09:53:35.322Z,81.90
2018-09-04T09:56:04.035Z,82.37
2018-09-04T09:58:35.142Z,83.15
2018-09-04T10:01:10.281Z,82.13
2018-09-04T10:03:49.300Z,82.15
2018-09-04T10:06:19.431Z,80.13
2018-09-04T10:08:50.421Z,78.33
2018-09-04T10:11:20.062Z,78.56
2018-09-04T10:13:49.424Z,78.67
2018-09-04T10:16:18.755Z,79.92
2018-09-04T10:18:49.185Z,80.08
2018-09-04T10:21:21.684Z,78.76
2018-09-04T10:23:51.724Z,77.66
2018-09-04T10:26:20.668Z,76.14
2018-09-04T10:28:50.768Z,74.67
2018-09-04T10:31:19.713Z,76.40
2018-09-04T10:33:50.072Z,75.74
2018-09-04T10:36:19.473Z,75.01
2018-09-04T10:38:50.901Z,74.35
2018-09-04T10:41:19.789Z,75.33
2018-09-04T10:47:47.558Z,75.60
2018-09-04T10:50:17.105Z,76.51
2018-09-04T10:52:46.961Z,73.58
2018-09-04T10:55:16.487Z,73.94
2018-09-04T10:57:45.457Z,74.56
2018-09-04T11:00:16.712Z,73.07
2018-09-04T11:02:48.038Z,72.08
2018-09-04T11:05:17.505Z,73.67
2018-09-04T11:07:46.409Z,73.36
2018-09-04T11:10:16.669Z,74.44
2018-09-04T11:12:45.653Z,72.67
2018-09-04T11:15:15.285Z,73.67
2018-09-04T11:17:44.836Z,75.29
2018-09-04T11:20:15.386Z,73.13
2018-09-04T11:22:44.573Z,71.83
2018-09-04T11:25:13.801Z,71.67
2018-09-04T11:27:44.043Z,71.22
2018-09-04T11:30:14.168Z,69.67
2018-09-04T11:32:43.609Z,70.52
2018-09-04T11:35:14.006Z,70.22
2018-09-04T11:37:42.889Z,70.97
2018-09-04T11:40:12.568Z,71.54
2018-09-04T11:42:42.256Z,72.71
2018-09-04T11:45:11.603Z,72.23
2018-09-04T11:47:42.692Z,71.32
2018-09-04T11:50:12.223Z,71.28
2018-09-04T11:52:42.228Z,71.88
2018-09-04T11:55:12.623Z,70.24
2018-09-04T11:57:44.811Z,69.54
2018-09-04T12:00:17.924Z,68.54
2018-09-04T12:02:49.349Z,70.54
2018-09-04T12:05:18.534Z,71.80
2018-09-04T12:07:51.880Z,70.03
2018-09-04T12:10:21.592Z,70.22
2018-09-04T12:12:51.707Z,70.21
2018-09-04T12:15:21.096Z,69.38
2018-09-04T12:17:50.003Z,70.81
2018-09-04T12:21:11.957Z,71.06
2018-09-04T12:23:41.125Z,68.94
2018-09-04T12:26:11.902Z,70.30
2018-09-04T12:28:42.942Z,70.34
2018-09-04T12:31:13.216Z,68.85
2018-09-04T12:33:43.283Z,69.02
2018-09-04T12:36:12.118Z,66.42
2018-09-04T12:38:42.914Z,67.58
2018-09-04T12:41:14.770Z,67.47
2018-09-04T12:43:43.706Z,68.76
2018-09-04T12:46:13.120Z,66.51
2018-09-04T12:48:48.272Z,65.45
2018-09-04T12:51:18.373Z,65.04
2018-09-04T12:53:47.632Z,65.89
2018-09-04T12:56:22.481Z,66.75
2018-09-04T12:58:51.442Z,63.69
2018-09-04T13:01:20.596Z,65.36
2018-09-04T13:03:50.190Z,66.53
2018-09-04T13:06:19.839Z,64.05
2018-09-04T13:08:48.730Z,64.15
2018-09-04T13:11:17.595Z,64.56
2018-09-04T13:13:47.288Z,65.76
2018-09-04T13:16:17.608Z,65.63
2018-09-04T13:18:47.239Z,63.51
2018-09-04T13:21:20.317Z,64.11
2018-09-04T13:23:54.151Z,63.29
2018-09-04T13:26:23.125Z,65.12
2018-09-04T13:28:52.975Z,63.35
2018-09-04T13:31:21.838Z,62.59
2018-09-04T13:33:52.008Z,64.26
2018-09-04T13:36:21.833Z,63.75
2018-09-04T13:38:50.709Z,62.95
2018-09-04T13:41:23.217Z,61.32
2018-09-04T13:43:53.306Z,61.21
2018-09-04T13:46:26.374Z,61.92
2018-09-04T13:48:57.379Z,60.72
2018-09-04T13:51:26.825Z,61.67
2018-09-04T13:53:56.678Z,61.70
2018-09-04T13:56:32.564Z,60.09
2018-09-04T13:59:04.543Z,61.21
2018-09-04T14:01:34.407Z,61.35
2018-09-04T14:04:05.308Z,61.67
2018-09-04T14:06:34.507Z,61.56
2018-09-04T14:09:10.760Z,62.00
2018-09-04T14:11:42.499Z,60.32
2018-09-04T14:14:12.560Z,60.58
2018-09-04T14:16:43.148Z,59.68
2018-09-04T14:19:10.727Z,58.52
2018-09-04T14:21:40.272Z,58.97
2018-09-04T14:24:09.460Z,60.21
2018-09-04T14:26:40.329Z,59.73
2018-09-04T14:29:10.513Z,59.25
2018-09-04T14:31:39.436Z,58.79
2018-09-04T14:34:08.856Z,58.71
2018-09-04T14:36:38.658Z,58.29
2018-09-04T14:39:10.426Z,59.03
2018-09-04T14:41:39.377Z,58.27
2018-09-04T14:44:09.652Z,58.19
2018-09-04T14:46:41.148Z,57.92
2018-09-04T14:49:10.052Z,58.07
2018-09-04T14:51:39.432Z,58.12
2018-09-04T14:54:09.510Z,55.70
2018-09-04T14:56:38.757Z,56.18
2018-09-04T14:59:08.309Z,56.11
2018-09-04T15:01:37.552Z,53.74
2018-09-04T15:04:06.624Z,54.44
2018-09-04T15:06:38.992Z,55.16
2018-09-04T15:09:07.884Z,56.51
2018-09-04T15:11:36.664Z,55.45
2018-09-04T15:14:07.139Z,55.79
2018-09-04T15:16:36.404Z,55.99
2018-09-04T15:19:05.988Z,57.44
2018-09-04T15:21:34.852Z,53.75
2018-09-04T15:24:03.956Z,53.45
2018-09-04T15:26:34.269Z,54.56
2018-09-04T15:29:06.210Z,55.14
2018-09-04T15:31:41.285Z,54.38
2018-09-04T15:34:10.738Z,54.70
2018-09-04T15:36:40.216Z,56.31
2018-09-04T15:39:09.044Z,56.08
2018-09-04T15:41:37.987Z,54.29
2018-09-04T15:44:06.832Z,55.35
2018-09-04T15:46:36.084Z,55.34
2018-09-04T15:49:10.358Z,55.02
2018-09-04T15:51:39.181Z,56.27
2018-09-04T15:54:09.124Z,54.25
2018-09-04T15:56:38.016Z,56.36
2018-09-04T15:59:07.509Z,54.24
2018-09-04T16:01:36.408Z,53.18
2018-09-04T16:04:05.420Z,54.33
2018-09-04T16:06:36.536Z,52.76
2018-09-04T16:09:08.397Z,55.09
2018-09-04T16:11:38.844Z,54.88
2018-09-04T16:14:10.779Z,54.52
2018-09-04T16:16:50.171Z,55.12
2018-09-04T16:19:26.838Z,56.28
2018-09-04T16:22:00.955Z,55.69
2018-09-04T16:24:34.198Z,55.22
2018-09-04T16:27:05.518Z,56.20
2018-09-04T16:32:54.552Z,56.43
2018-09-04T16:35:24.370Z,55.25
2018-09-04T16:37:57.709Z,54.58
2018-09-04T16:40:26.512Z,54.70
2018-09-04T16:42:59.190Z,55.97
2018-09-04T16:45:28.182Z,55.98
2018-09-04T16:48:01.217Z,55.16
2018-09-04T16:50:31.709Z,56.13
2018-09-04T16:53:01.105Z,56.49
2018-09-04T16:55:34.608Z,57.82
2018-09-04T16:58:03.548Z,57.72
2018-09-04T17:00:33.388Z,59.07
2018-09-04T17:03:05.076Z,59.00
2018-09-04T17:05:34.693Z,59.21
2018-09-04T17:08:07.180Z,60.16
2018-09-04T17:10:41.224Z,60.05
2018-09-04T17:13:11.501Z,61.59
2018-09-04T17:15:41.562Z,62.13
2018-09-04T17:18:12.252Z,62.22
2018-09-04T17:20:42.397Z,62.58
2018-09-04T17:23:13.625Z,62.55
2018-09-04T17:25:43.506Z,64.50
2018-09-04T17:28:13.637Z,65.17
2018-09-04T17:30:43.214Z,64.80
2018-09-04T17:33:12.967Z,67.24
2018-09-04T17:35:46.657Z,67.92
2018-09-04T17:38:27.198Z,68.60
2018-09-04T17:40:59.732Z,68.49
2018-09-04T17:43:44.160Z,68.94
2018-09-04T17:46:13.439Z,69.24
2018-09-04T17:48:44.256Z,69.72
2018-09-04T17:51:17.374Z,71.53
2018-09-04T17:53:46.265Z,71.03
2018-09-04T17:56:19.204Z,72.42
2018-09-04T17:58:49.649Z,73.38
2018-09-04T18:01:19.479Z,73.75
2018-09-04T18:03:52.959Z,74.96
2018-09-04T18:06:36.062Z,73.87
2018-09-04T18:09:08.284Z,75.34
2018-09-04T18:11:37.806Z,76.38
2018-09-04T18:14:07.225Z,75.81
2018-09-04T18:16:36.164Z,76.72
2018-09-04T18:19:05.459Z,77.23
2018-09-04T18:24:30.466Z,78.44
2018-09-04T18:26:59.411Z,78.31
2018-09-04T18:29:28.272Z,78.93
2018-09-04T18:31:58.047Z,78.57
2018-09-04T18:34:27.907Z,79.29
2018-09-04T18:37:01.318Z,80.04
2018-09-04T18:39:31.763Z,80.07
2018-09-04T18:42:00.747Z,79.19
2018-09-04T18:44:31.331Z,81.65
2018-09-04T18:47:00.621Z,82.22
2018-09-04T18:49:30.809Z,81.24
2018-09-04T18:51:59.715Z,82.21
2018-09-04T18:57:05.225Z,81.94
2018-09-04T18:59:34.279Z,83.64
2018-09-04T19:02:04.138Z,83.21
2018-09-04T19:04:32.985Z,82.40
2018-09-04T19:07:02.133Z,84.50
2018-09-04T19:10:03.605Z,84.13
2018-09-04T19:12:34.079Z,84.16
2018-09-04T19:15:02.949Z,84.75
2018-09-04T19:17:32.312Z,82.90
2018-09-04T19:20:01.813Z,84.16
2018-09-04T19:22:31.909Z,85.09
2018-09-04T19:25:00.751Z,85.21
2018-09-04T19:27:30.604Z,86.99
2018-09-04T19:30:02.617Z,86.40
2018-09-04T19:32:32.612Z,87.59
2018-09-04T19:35:02.812Z,86.21
2018-09-04T19:37:31.622Z,86.99
2018-09-04T19:40:00.514Z,87.21
2018-09-04T19:42:29.376Z,87.37
2018-09-04T19:45:00.412Z,87.87
2018-09-04T19:47:30.449Z,88.00
2018-09-04T19:50:01.648Z,88.07
2018-09-04T19:52:30.563Z,88.26
2018-09-04T19:55:00.885Z,89.10
2018-09-04T19:57:31.995Z,89.03
2018-09-04T20:00:00.837Z,87.88
2018-09-04T20:02:31.549Z,87.89
2018-09-04T20:05:00.490Z,86.73
2018-09-04T20:07:30.663Z,89.23
2018-09-04T20:09:59.706Z,88.38
2018-09-04T20:12:29.186Z,89.17
2018-09-04T20:15:02.345Z,90.89
2018-09-04T20:17:31.475Z,93.03
2018-09-04T20:20:01.750Z,90.82
2018-09-04T20:22:31.130Z,88.95
2018-09-04T20:25:00.530Z,90.84
2018-09-04T20:27:29.337Z,90.26
2018-09-04T20:29:58.697Z,91.19
2018-09-04T20:32:30.663Z,90.08
2018-09-04T20:34:59.782Z,91.98
2018-09-04T20:37:29.452Z,90.14
2018-09-04T20:39:58.331Z,90.61
2018-09-04T20:42:27.687Z,90.80
2018-09-04T20:44:58.405Z,91.61
2018-09-04T20:47:27.257Z,91.30
2018-09-04T20:49:57.765Z,92.25
2018-09-04T20:52:28.992Z,92.55
2018-09-04T20:54:57.886Z,92.54
2018-09-04T20:57:47.281Z,92.81
2018-09-04T21:00:27.398Z,93.22
2018-09-04T21:03:08.704Z,91.94
2018-09-04T21:05:48.492Z,93.30
2018-09-04T21:08:23.513Z,93.22
2018-09-04T21:10:58.658Z,92.77
2018-09-04T21:14:01.189Z,94.34
2018-09-04T21:16:32.412Z,93.56
2018-09-04T21:19:03.185Z,94.00
2018-09-04T21:21:37.847Z,93.10
2018-09-04T21:24:08.489Z,93.67
2018-09-04T21:26:39.222Z,93.02
2018-09-04T21:29:14.143Z,94.00
2018-09-04T21:31:43.982Z,94.39
2018-09-04T21:34:14.318Z,93.96
2018-09-04T21:36:43.173Z,92.36
2018-09-04T21:39:14.851Z,93.63
2018-09-04T21:41:45.290Z,93.94
2018-09-04T21:44:14.519Z,94.04
2018-09-04T21:46:43.394Z,93.80
2018-09-04T21:49:12.472Z,93.72
2018-09-04T21:51:48.588Z,94.48
2018-09-04T21:54:17.516Z,94.82
2018-09-04T21:56:46.414Z,93.38
2018-09-04T21:59:17.278Z,94.21
2018-09-04T22:01:48.346Z,93.87
2018-09-04T22:04:18.472Z,94.06
2018-09-04T22:06:48.333Z,94.07
2018-09-04T22:09:18.284Z,94.41
2018-09-04T22:11:49.310Z,95.00
2018-09-04T22:14:19.333Z,94.27
2018-09-04T22:16:48.744Z,94.86
2018-09-04T22:20:33.129Z,94.96
2018-09-04T22:23:02.898Z,93.33
2018-09-04T22:25:32.609Z,95.07
2018-09-04T22:28:02.577Z,94.67
2018-09-04T22:30:31.703Z,94.86
2018-09-04T22:33:00.559Z,95.74
2018-09-04T22:35:29.988Z,96.45
2018-09-04T22:37:59.886Z,95.30
2018-09-04T22:40:28.731Z,95.55
2018-09-04T22:42:58.962Z,95.09
2018-09-04T22:45:27.868Z,94.93
2018-09-04T22:47:57.849Z,95.27
2018-09-04T22:50:32.205Z,94.51
2018-09-04T22:53:01.097Z,95.72
2018-09-04T22:55:29.909Z,96.09
2018-09-04T22:58:00.362Z,95.99
2018-09-04T23:00:30.492Z,95.65
2018-09-04T23:02:59.320Z,96.30
2018-09-04T23:05:28.897Z,94.86
2018-09-04T23:07:57.727Z,95.23
2018-09-04T23:10:26.540Z,95.84
2018-09-04T23:12:55.403Z,94.80
2018-09-04T23:15:24.276Z,95.83
2018-09-04T23:17:53.476Z,95.89
2018-09-04T23:20:22.334Z,96.56
2018-09-04T23:22:51.154Z,97.17
2018-09-04T23:25:20.317Z,96.03
2018-09-04T23:27:49.161Z,94.82
2018-09-04T23:30:17.957Z,95.66
2018-09-04T23:32:47.215Z,96.08
2018-09-04T23:35:17.414Z,95.29
2018-09-04T23:37:48.157Z,96.01
2018-09-04T23:40:17.046Z,95.94
2018-09-04T23:42:47.055Z,95.68
2018-09-04T23:45:17.459Z,95.69
2018-09-04T23:47:47.011Z,95.15
2018-09-04T23:50:16.216Z,96.14
2018-09-04T23:52:45.087Z,96.13
2018-09-04T23:55:13.926Z,95.28
2018-09-04T23:57:43.728Z,95.32
